createdAt,value
2023-04-11T04:23:25.775Z,86.17
2023-04-11T04:26:10.018Z,86.43
2023-04-11T04:28:38.397Z,86.10
2023-04-11T04:31:08.670Z,86.93
2023-04-11T04:33:37.058Z,87.24
2023-04-11T04:36:10.816Z,87.24
2023-04-11T04:38:42.455Z,87.07
2023-04-11T04:41:15.992Z,88.13
2023-04-11T04:43:44.544Z,87.85
2023-04-11T04:46:12.806Z,87.70
2023-04-11T04:48:44.362Z,87.61
2023-04-11T04:51:14.694Z,87.37
2023-04-11T04:53:53.880Z,87.52
2023-04-11T04:56:38.977Z,87.44
2023-04-11T04:59:16.669Z,87.31
2023-04-11T05:01:48.340Z,88.16
2023-04-11T05:04:19.134Z,87.06
2023-04-11T05:06:49.896Z,87.70
2023-04-11T05:09:23.106Z,87.49
2023-04-11T05:11:52.333Z,88.67
2023-04-11T05:20:29.803Z,87.54
2023-04-11T05:23:13.745Z,87.36
2023-04-11T05:25:46.661Z,86.86
2023-04-11T05:28:17.522Z,87.01
2023-04-11T05:30:49.850Z,85.88
2023-04-11T05:33:18.495Z,85.98
2023-04-11T05:35:48.865Z,84.47
2023-04-11T05:38:17.782Z,86.21
2023-04-11T05:40:47.445Z,84.01
2023-04-11T05:43:23.052Z,82.73
2023-04-11T05:45:52.062Z,82.21
2023-04-11T05:48:21.010Z,83.13
2023-04-11T05:50:50.973Z,83.67
2023-04-11T05:53:19.652Z,83.05
2023-04-11T05:55:50.490Z,82.54
2023-04-11T05:58:21.690Z,82.91
2023-04-11T06:00:49.899Z,82.06
2023-04-11T06:03:21.442Z,82.65
2023-04-11T06:05:54.414Z,81.92
2023-04-11T06:08:31.402Z,80.86
2023-04-11T06:11:00.890Z,80.59
2023-04-11T06:13:29.308Z,82.13
2023-04-11T06:16:19.610Z,80.60
2023-04-11T06:18:47.900Z,79.75
2023-04-11T06:21:17.410Z,79.35
2023-04-11T06:24:00.800Z,78.05
2023-04-11T06:26:31.450Z,78.12
2023-04-11T06:29:00.464Z,75.61
2023-04-11T06:31:29.057Z,75.52
2023-04-11T06:34:01.819Z,76.02
2023-04-11T06:36:49.255Z,74.08
2023-04-11T06:42:02.305Z,71.57
2023-04-11T06:44:35.781Z,71.53
2023-04-11T06:47:04.286Z,70.90
2023-04-11T06:49:34.872Z,70.68
2023-04-11T06:52:05.440Z,70.51
2023-04-11T06:54:35.511Z,67.87
2023-04-11T06:57:06.307Z,67.80
2023-04-11T06:59:35.273Z,67.41
2023-04-11T07:02:16.013Z,67.63
2023-04-11T07:04:45.497Z,66.06
2023-04-11T07:07:38.956Z,66.18
2023-04-11T07:10:30.714Z,66.37
2023-04-11T07:13:21.614Z,66.36
2023-04-11T07:18:49.098Z,64.10
2023-04-11T07:21:21.822Z,64.46
2023-04-11T07:23:52.833Z,64.07
2023-04-11T07:26:24.264Z,63.72
2023-04-11T07:28:54.414Z,63.75
2023-04-11T07:31:23.555Z,61.54
2023-04-11T07:33:58.468Z,60.06
2023-04-11T07:36:27.802Z,60.63
2023-04-11T07:38:58.922Z,59.77
2023-04-11T07:41:28.931Z,58.47
2023-04-11T07:44:10.809Z,58.13
2023-04-11T07:49:24.851Z,57.66
2023-04-11T07:51:53.273Z,59.01
2023-04-11T07:54:25.220Z,59.36
2023-04-11T07:56:55.179Z,58.80
2023-04-11T07:59:29.398Z,57.89
2023-04-11T08:02:16.720Z,57.14
2023-04-11T08:04:44.978Z,56.05
2023-04-11T08:07:20.922Z,54.60
2023-04-11T08:09:54.186Z,55.20
2023-04-11T08:12:24.409Z,55.40
2023-04-11T08:15:02.170Z,55.03
2023-04-11T08:17:46.481Z,54.37
2023-04-11T08:20:16.384Z,54.55
2023-04-11T08:22:52.327Z,53.32
2023-04-11T08:25:26.324Z,53.99
2023-04-11T08:27:57.023Z,54.33
2023-04-11T08:31:17.073Z,54.72
2023-04-11T08:40:42.631Z,54.19
2023-04-11T08:43:25.434Z,52.54
2023-04-11T08:48:36.938Z,53.36
2023-04-11T08:51:26.936Z,52.47
2023-04-11T09:00:16.035Z,49.71
2023-04-11T09:02:58.525Z,48.49
2023-04-11T09:05:28.536Z,48.69
2023-04-11T09:08:13.428Z,49.58
2023-04-11T09:10:48.099Z,50.32
2023-04-11T09:13:23.702Z,49.61
2023-04-11T09:16:10.110Z,49.67
2023-04-11T09:18:42.684Z,49.80
2023-04-11T09:21:14.157Z,49.64
2023-04-11T09:23:44.034Z,49.39
2023-04-11T09:26:15.875Z,48.37
2023-04-11T09:28:54.318Z,47.67
2023-04-11T09:31:41.422Z,47.19
2023-04-11T09:34:10.137Z,48.51
2023-04-11T09:36:40.658Z,49.45
2023-04-11T09:39:20.127Z,51.52
2023-04-11T09:41:53.056Z,50.45
2023-04-11T09:44:22.398Z,49.61
2023-04-11T09:47:03.681Z,49.50
2023-04-11T09:49:35.233Z,48.77
2023-04-11T09:52:06.904Z,50.13
2023-04-11T09:54:44.939Z,48.86
2023-04-11T09:57:20.284Z,48.37
2023-04-11T09:59:48.943Z,47.78
2023-04-11T10:02:21.139Z,47.59
2023-04-11T10:04:54.842Z,47.63
2023-04-11T10:07:25.384Z,48.36
2023-04-11T10:09:55.829Z,48.58
2023-04-11T10:12:34.532Z,47.55
2023-04-11T10:15:10.779Z,47.06
2023-04-11T10:18:12.846Z,47.85
2023-04-11T10:20:46.326Z,47.09
2023-04-11T10:26:04.974Z,48.21
2023-04-11T10:28:41.407Z,47.88
2023-04-11T10:31:14.585Z,49.24
2023-04-11T10:34:15.951Z,49.00
2023-04-11T10:37:06.204Z,47.73
2023-04-11T10:40:09.795Z,45.37
2023-04-11T10:42:41.926Z,49.98
2023-04-11T10:45:24.021Z,50.23
2023-04-11T10:48:14.010Z,51.42
2023-04-11T10:50:45.859Z,52.49
2023-04-11T10:53:41.081Z,52.31
2023-04-11T10:56:11.589Z,51.92
2023-04-11T10:58:42.359Z,51.35
2023-04-11T11:01:31.634Z,48.47
2023-04-11T11:04:07.733Z,47.04
2023-04-11T11:06:50.926Z,47.37
2023-04-11T11:09:29.064Z,46.53
2023-04-11T11:12:07.542Z,46.76
2023-04-11T11:14:36.642Z,46.34
2023-04-11T11:17:07.882Z,45.32
2023-04-11T11:19:37.900Z,45.53
2023-04-11T11:22:18.089Z,45.63
2023-04-11T11:24:48.239Z,45.85
2023-04-11T11:27:29.688Z,44.25
2023-04-11T11:30:00.769Z,40.88
2023-04-11T11:32:33.060Z,39.74
2023-04-11T11:35:13.533Z,39.79
2023-04-11T11:37:46.482Z,39.45
2023-04-11T11:40:18.117Z,39.20
2023-04-11T11:42:53.447Z,37.44
2023-04-11T11:45:23.075Z,37.53
2023-04-11T11:48:00.008Z,36.34
2023-04-11T11:50:30.519Z,36.59
2023-04-11T11:53:14.008Z,35.27
2023-04-11T11:55:47.196Z,33.81
2023-04-11T11:58:16.386Z,33.47
2023-04-11T12:00:44.632Z,34.10
2023-04-11T12:03:13.148Z,35.08
2023-04-11T12:05:44.210Z,35.69
2023-04-11T12:08:14.882Z,36.60
2023-04-11T12:10:45.206Z,40.29
2023-04-11T12:13:40.520Z,41.96
2023-04-11T12:16:09.175Z,43.36
2023-04-11T12:18:42.600Z,44.63
2023-04-11T12:21:12.171Z,43.75
2023-04-11T12:23:48.412Z,43.91
2023-04-11T12:26:23.890Z,43.16
2023-04-11T12:28:58.001Z,42.50
2023-04-11T12:31:28.092Z,41.51
2023-04-11T12:33:58.866Z,39.10
2023-04-11T12:36:30.018Z,38.33
2023-04-11T12:38:59.630Z,37.65
2023-04-11T12:41:36.021Z,36.42
2023-04-11T12:44:04.411Z,35.83
2023-04-11T12:46:33.595Z,34.48
2023-04-11T12:49:02.943Z,34.11
2023-04-11T12:51:32.386Z,35.47
2023-04-11T12:54:03.941Z,35.81
2023-04-11T12:56:34.034Z,35.43
2023-04-11T12:59:02.865Z,34.92
2023-04-11T13:01:33.917Z,36.17
2023-04-11T13:04:02.717Z,38.60
2023-04-11T13:06:34.427Z,38.69
2023-04-11T13:09:07.034Z,38.60
2023-04-11T13:11:37.691Z,38.80
2023-04-11T13:14:31.272Z,38.88
2023-04-11T13:17:01.463Z,39.11
2023-04-11T13:19:47.986Z,39.29
2023-04-11T13:22:16.986Z,39.01
2023-04-11T13:24:53.489Z,38.41
2023-04-11T13:27:47.878Z,38.26
2023-04-11T13:30:30.569Z,37.43
2023-04-11T13:33:10.817Z,37.01
2023-04-11T13:35:42.440Z,35.95
2023-04-11T13:38:14.713Z,35.46
2023-04-11T13:40:45.575Z,34.32
2023-04-11T13:43:14.939Z,34.47
2023-04-11T13:45:43.351Z,35.29
2023-04-11T13:48:11.644Z,34.61
2023-04-11T13:50:41.536Z,34.23
2023-04-11T13:53:13.783Z,32.78
2023-04-11T13:55:42.529Z,33.60
2023-04-11T13:58:14.596Z,32.36
2023-04-11T14:00:45.805Z,31.88
2023-04-11T14:03:15.963Z,31.86
2023-04-11T14:05:48.286Z,32.82
2023-04-11T14:08:17.304Z,32.83
2023-04-11T14:10:48.807Z,32.66
2023-04-11T14:17:41.668Z,33.61
2023-04-11T14:20:12.386Z,34.43
2023-04-11T14:22:46.991Z,33.38
2023-04-11T14:25:23.504Z,33.70
2023-04-11T14:27:54.622Z,34.74
2023-04-11T14:30:24.077Z,35.36
2023-04-11T14:32:56.940Z,38.66
2023-04-11T14:35:25.746Z,38.05
2023-04-11T14:37:57.180Z,42.95
2023-04-11T14:40:26.146Z,36.61
2023-04-11T14:42:55.001Z,39.00
2023-04-11T14:45:23.776Z,37.92
2023-04-11T14:47:52.833Z,36.62
2023-04-11T14:50:22.511Z,35.31
2023-04-11T14:52:53.208Z,33.06
2023-04-11T14:55:22.656Z,31.23
2023-04-11T14:57:57.642Z,31.93
2023-04-11T15:00:26.572Z,32.95
2023-04-11T15:02:58.496Z,33.23
2023-04-11T15:05:43.921Z,34.13
2023-04-11T15:08:51.235Z,34.40
2023-04-11T15:11:46.372Z,34.34
2023-04-11T15:18:25.934Z,37.37
2023-04-11T15:20:57.406Z,38.69
2023-04-11T15:23:27.098Z,38.78
2023-04-11T15:25:57.079Z,38.99
2023-04-11T15:28:27.805Z,38.64
2023-04-11T15:30:56.864Z,38.25
2023-04-11T15:36:32.676Z,38.27
2023-04-11T15:39:01.168Z,39.72
2023-04-11T15:41:30.453Z,39.77
2023-04-11T15:44:00.838Z,39.57
2023-04-11T15:46:31.096Z,38.43
2023-04-11T15:49:08.285Z,37.65
2023-04-11T15:51:38.680Z,37.56
2023-04-11T15:54:10.470Z,37.66
2023-04-11T15:56:39.835Z,36.67
2023-04-11T15:59:23.214Z,36.94
2023-04-11T16:01:51.530Z,37.15
2023-04-11T16:04:21.430Z,37.30
2023-04-11T16:06:52.576Z,37.59
2023-04-11T16:09:21.022Z,37.51
2023-04-11T16:11:51.092Z,37.42
2023-04-11T16:14:20.097Z,37.81
2023-04-11T16:16:48.600Z,37.11
2023-04-11T16:19:22.564Z,37.38
2023-04-11T16:21:53.278Z,37.88
2023-04-11T16:24:22.799Z,37.10
2023-04-11T16:26:51.236Z,36.98
2023-04-11T16:29:19.141Z,36.92
2023-04-11T16:31:47.914Z,37.04
2023-04-11T16:34:17.760Z,35.87
2023-04-11T16:36:48.471Z,36.30
2023-04-11T16:39:20.465Z,36.34
2023-04-11T16:41:49.220Z,36.03
2023-04-11T16:44:19.073Z,36.43
2023-04-11T16:46:46.946Z,35.92
2023-04-11T16:49:16.307Z,36.00
2023-04-11T16:51:44.340Z,35.65
2023-04-11T16:54:13.966Z,35.35
2023-04-11T16:56:45.032Z,35.57
2023-04-11T16:59:13.750Z,35.35
2023-04-11T17:01:43.050Z,35.51
2023-04-11T17:04:11.387Z,36.06
2023-04-11T17:06:42.718Z,36.09
2023-04-11T17:09:11.535Z,36.21
2023-04-11T17:11:43.740Z,36.84
2023-04-11T17:14:11.777Z,37.03
2023-04-11T17:16:40.341Z,37.08
2023-04-11T17:19:08.624Z,36.86
2023-04-11T17:21:38.918Z,37.17
2023-04-11T17:24:07.955Z,37.17
2023-04-11T17:26:37.714Z,37.89
2023-04-11T17:29:08.006Z,37.18
2023-04-11T17:31:36.104Z,37.04
2023-04-11T17:34:04.421Z,37.11
2023-04-11T17:36:33.389Z,37.42
2023-04-11T17:39:04.494Z,37.61
2023-04-11T17:41:33.586Z,37.61
2023-04-11T17:44:01.989Z,37.83
2023-04-11T17:46:33.732Z,37.84
2023-04-11T17:49:02.036Z,38.70
2023-04-11T17:51:32.559Z,39.75
2023-04-11T17:54:00.868Z,40.43
2023-04-11T17:56:31.254Z,40.75
2023-04-11T17:58:59.936Z,41.48
2023-04-11T18:01:32.584Z,42.13
2023-04-11T18:04:07.885Z,42.57
2023-04-11T18:06:36.008Z,43.33
2023-04-11T18:09:08.182Z,43.47
2023-04-11T18:11:47.521Z,43.43
2023-04-11T18:14:16.937Z,42.97
2023-04-11T18:16:53.278Z,43.56
2023-04-11T18:19:26.124Z,44.16
2023-04-11T18:21:55.474Z,43.04
2023-04-11T18:24:23.802Z,43.04
2023-04-11T18:26:54.414Z,42.40
2023-04-11T18:29:22.641Z,43.20
2023-04-11T18:31:54.741Z,43.73
2023-04-11T18:34:26.072Z,44.28
2023-04-11T18:36:55.033Z,45.03
2023-04-11T18:39:30.804Z,45.46
2023-04-11T18:42:00.198Z,44.98
2023-04-11T18:44:30.901Z,45.17
2023-04-11T18:47:02.365Z,44.79
2023-04-11T18:52:23.739Z,45.20
2023-04-11T18:54:51.779Z,45.29
2023-04-11T18:57:21.271Z,45.21
2023-04-11T18:59:51.078Z,45.73
2023-04-11T19:02:20.227Z,45.90
2023-04-11T19:04:50.923Z,46.40
2023-04-11T19:07:21.198Z,47.21
2023-04-11T19:09:49.960Z,46.76
2023-04-11T19:12:24.161Z,47.59
2023-04-11T19:14:53.101Z,47.75
2023-04-11T19:17:24.409Z,47.61
2023-04-11T19:19:54.257Z,48.21
2023-04-11T19:22:22.855Z,48.64
2023-04-11T19:24:52.623Z,48.47
2023-04-11T19:27:22.718Z,48.61
2023-04-11T19:29:53.776Z,48.75
2023-04-11T19:32:23.757Z,49.14
2023-04-11T19:34:54.848Z,49.25
2023-04-11T19:37:23.909Z,50.17
2023-04-11T19:39:52.216Z,50.18
2023-04-11T19:42:20.995Z,50.51
2023-04-11T19:44:49.363Z,51.64
2023-04-11T19:47:22.075Z,50.87
2023-04-11T19:49:54.303Z,51.57
2023-04-11T19:52:27.993Z,52.06
2023-04-11T19:55:12.871Z,52.28
2023-04-11T19:57:43.448Z,52.07
2023-04-11T20:00:14.335Z,51.85
2023-04-11T20:02:46.107Z,52.34
2023-04-11T20:05:18.817Z,52.48
2023-04-11T20:07:48.472Z,52.00
2023-04-11T20:10:17.416Z,52.81
2023-04-11T20:12:48.909Z,52.51
2023-04-11T20:15:17.129Z,51.49
2023-04-11T20:17:46.471Z,51.57
2023-04-11T20:20:19.570Z,51.11
2023-04-11T20:22:49.383Z,51.76
2023-04-11T20:25:17.536Z,51.50
2023-04-11T20:27:50.581Z,50.57
2023-04-11T20:30:21.129Z,50.76
2023-04-11T20:32:50.966Z,50.63
2023-04-11T20:35:21.685Z,50.99
2023-04-11T20:37:51.379Z,51.56
2023-04-11T20:40:22.240Z,51.38
2023-04-11T20:42:53.299Z,51.33
2023-04-11T20:45:26.149Z,51.14
2023-04-11T20:47:58.080Z,51.32
2023-04-11T20:50:33.435Z,51.25
2023-04-11T20:53:02.841Z,50.58
2023-04-11T20:55:33.407Z,51.11
2023-04-11T20:58:07.376Z,50.82
2023-04-11T21:00:42.695Z,50.85
2023-04-11T21:03:11.211Z,50.50
2023-04-11T21:05:46.569Z,50.54
2023-04-11T21:08:15.653Z,50.52
2023-04-11T21:10:43.911Z,49.96
2023-04-11T21:13:17.274Z,50.02
2023-04-11T21:15:47.897Z,50.61
2023-04-11T21:18:19.508Z,50.56
2023-04-11T21:20:51.067Z,49.89
2023-04-11T21:23:20.833Z,50.95
2023-04-11T21:25:59.910Z,50.73
2023-04-11T21:28:30.328Z,51.54
2023-04-11T21:30:59.208Z,51.49
2023-04-11T21:33:27.634Z,51.84
2023-04-11T21:35:57.328Z,51.28
2023-04-11T21:38:26.219Z,51.21
2023-04-11T21:40:54.579Z,51.76
2023-04-11T21:43:25.456Z,51.63
2023-04-11T21:45:53.752Z,51.64
2023-04-11T21:48:23.176Z,51.95
2023-04-11T21:50:52.988Z,51.83
2023-04-11T21:53:22.582Z,52.20
2023-04-11T21:55:52.197Z,52.37
2023-04-11T21:58:29.102Z,52.83
2023-04-11T22:00:57.992Z,52.88
2023-04-11T22:03:29.085Z,52.78
2023-04-11T22:05:59.113Z,53.67
2023-04-11T22:08:29.526Z,54.61
2023-04-11T22:10:58.292Z,54.21
2023-04-11T22:13:27.351Z,54.17
2023-04-11T22:16:05.526Z,54.47
2023-04-11T22:18:38.482Z,53.79
2023-04-11T22:21:09.437Z,53.93
2023-04-11T22:23:39.060Z,54.00
2023-04-11T22:26:09.371Z,53.90
2023-04-11T22:28:38.705Z,53.95
2023-04-11T22:31:09.610Z,54.28
2023-04-11T22:33:38.064Z,54.49
2023-04-11T22:36:06.494Z,53.98
2023-04-11T22:38:35.173Z,53.97
2023-04-11T22:41:06.422Z,54.10
2023-04-11T22:43:35.759Z,54.04
2023-04-11T22:46:08.947Z,54.30
2023-04-11T22:48:40.799Z,54.50
2023-04-11T22:51:09.219Z,54.45
2023-04-11T22:53:42.189Z,54.70
2023-04-11T22:56:12.972Z,55.03
2023-04-11T22:58:42.583Z,55.24
2023-04-11T23:01:15.584Z,56.03
2023-04-11T23:03:43.495Z,57.75
2023-04-11T23:06:14.378Z,56.22
2023-04-11T23:08:43.936Z,57.02
2023-04-11T23:11:15.526Z,57.23
2023-04-11T23:13:43.381Z,56.55
2023-04-11T23:16:13.346Z,58.26
2023-04-11T23:18:44.765Z,58.57
2023-04-11T23:21:14.553Z,60.48
2023-04-11T23:23:43.935Z,60.93
2023-04-11T23:26:24.397Z,59.97
2023-04-11T23:28:56.926Z,61.54
2023-04-11T23:31:27.722Z,63.06
2023-04-11T23:33:57.288Z,63.64
2023-04-11T23:36:26.696Z,61.05
2023-04-11T23:38:54.833Z,62.46
2023-04-11T23:41:30.758Z,60.88
2023-04-11T23:44:00.959Z,62.98
2023-04-11T23:46:32.651Z,64.19
2023-04-11T23:49:01.572Z,64.53
2023-04-11T23:51:35.060Z,62.82
2023-04-11T23:54:03.116Z,65.96
2023-04-11T23:56:32.581Z,66.10
2023-04-11T23:59:01.894Z,64.14
